This is the latest recevied weather packets stored in our database for station/object KE8WMS. If no packets are shown the sender has not sent any weather packets the latest 10 day(s).
| Time | Temp. | Humidity | Pressure | Rain* | Wind** | Luminosity | Snow |
|---|---|---|---|---|---|---|---|
| 1787681731 | 23.33° C | 75% | 1015 hPa | 0 mm | - | 713 W/m² | - |
| 1787681427 | 23.33° C | 73% | 1015.1 hPa | 0 mm | - | 721 W/m² | - |
| 1787681126 | 23.33° C | 74% | 1015.2 hPa | 0 mm | - | 712 W/m² | - |
| 1787680822 | 22.78° C | 75% | 1015.2 hPa | 0 mm | - | 318 W/m² | - |
| 1787680517 | 23.89° C | 73% | 1015.4 hPa | 0 mm | - | 750 W/m² | - |
| 1787680215 | 23.33° C | 76% | 1015.2 hPa | 0 mm | - | 723 W/m² | - |
| 1787679909 | 22.78° C | 75% | 1015.3 hPa | 0 mm | - | 699 W/m² | - |
| 1787679609 | 22.78° C | 75% | 1015.3 hPa | 0 mm | - | 788 W/m² | - |
| 1787679305 | 23.33° C | 76% | 1015.3 hPa | 0 mm | - | 733 W/m² | - |
| 1787679001 | 23.33° C | 75% | 1015.3 hPa | 0 mm | - | 713 W/m² | - |
| 1787678701 | 22.78° C | 77% | 1015.5 hPa | 0 mm | - | 734 W/m² | - |
| 1787678395 | 23.33° C | 74% | 1015.5 hPa | 0 mm | - | 737 W/m² | - |
| 1787678090 | 23.33° C | 76% | 1015.6 hPa | 0 mm | - | 774 W/m² | - |
| 1787677790 | 22.78° C | 77% | 1015.5 hPa | 0 mm | - | 573 W/m² | - |
| 1787677485 | 22.78° C | 79% | 1015.6 hPa | 0 mm | - | 726 W/m² | - |
| 1787676878 | 23.33° C | 76% | 1015.5 hPa | 0 mm | - | 755 W/m² | - |
| 1787676578 | 22.78° C | 77% | 1015.5 hPa | 0 mm | - | 748 W/m² | - |
| 1787676276 | 22.22° C | 79% | 1015.6 hPa | 0 mm | - | 726 W/m² | - |
| 1787675971 | 22.78° C | 76% | 1015.7 hPa | 0 mm | - | 716 W/m² | - |
| 1787675666 | 22.78° C | 77% | 1015.7 hPa | 0 mm | - | 721 W/m² | - |
| 1787675366 | 22.22° C | 77% | 1015.6 hPa | 0 mm | - | 728 W/m² | - |
| 1787675066 | 22.78° C | 77% | 1015.6 hPa | 0 mm | - | 730 W/m² | - |
| 1787674760 | 22.78° C | 76% | 1015.9 hPa | 0 mm | - | 742 W/m² | - |
| 1787674457 | 22.78° C | 76% | 1015.8 hPa | 0 mm | - | 704 W/m² | - |
| 1787674156 | 22.22° C | 77% | 1015.8 hPa | 0 mm | - | 684 W/m² | - |
* Rain latest hour (hover to see other rain measurements)
** Current wind speed in m/s (hover to see current wind gust speed)